Decoded Metar for KMMT (MCENTIRE ANG BAS in SC, USA) (IATA:MMT) | Meteo·Mobile Aviation Weather
aviador You're here:

KMMT Decoded Metar

MCENTIRE ANG BAS in SC, USA
Report Time2018-12-11 23:56:00
UTC Time2018-12-12 00:16:43
Flight Rules vfr VFR
WindCalm
Visibility9999 m
Phenomena:N/A
Clouds:N/A
CeilingNone
Temp02°C (ISA -12)
Dew Point02°C (100% RH)
AAT0.3°C
QNH1023 hPa
Density Alt-1,509 ft
Elevation253 ft
Report Wrong Elevation
Raw Report
KMMT 112356Z 00000KT 10SM CLR 02/02 A3020 RMK AO2A SLP232
T00240023 10125 20023 52005 $=

Extra information for KMMT:More info

Metar Taf Metar & Taf Last 4 Metars F.Rules Stats Wind Profile Meteogram Temp Stats Airport Information Weather charts Add Link Nearby VenuesMetar ALERT Operation Metar Decoded Social comments

AIRNAV info for KMMT